createdAt,value
2022-10-21T00:02:07.023Z,4.70
2022-10-21T00:04:57.200Z,5.47
2022-10-21T00:07:46.061Z,3.60
2022-10-21T00:10:34.907Z,5.20
2022-10-21T00:13:24.633Z,4.90
2022-10-21T00:16:14.483Z,5.43
2022-10-21T00:19:03.314Z,6.33
2022-10-21T00:21:53.527Z,6.57
2022-10-21T00:24:42.390Z,6.70
2022-10-21T00:27:31.531Z,7.33
2022-10-21T00:30:20.445Z,6.60
2022-10-21T00:33:09.295Z,6.43
2022-10-21T00:35:59.185Z,6.53
2022-10-21T00:38:51.223Z,6.10
2022-10-21T00:41:40.054Z,6.63
2022-10-21T00:44:28.910Z,6.20
2022-10-21T00:47:19.466Z,6.60
2022-10-21T00:50:19.393Z,5.47
2022-10-21T00:53:09.613Z,5.73
2022-10-21T00:56:01.285Z,6.20
2022-10-21T00:58:50.659Z,7.47
2022-10-21T01:01:39.638Z,6.03
2022-10-21T01:04:28.655Z,7.83
2022-10-21T01:07:17.505Z,6.23
2022-10-21T01:10:06.787Z,6.80
2022-10-21T01:13:06.682Z,6.37
2022-10-21T01:15:58.484Z,7.17
2022-10-21T01:18:50.469Z,5.83
2022-10-21T01:21:41.126Z,6.93
2022-10-21T01:24:46.099Z,7.40
2022-10-21T01:27:40.022Z,6.20
2022-10-21T01:30:34.527Z,6.10
2022-10-21T01:33:28.973Z,6.67
2022-10-21T01:36:24.201Z,6.70
2022-10-21T01:39:17.820Z,7.07
2022-10-21T01:45:04.442Z,6.47
2022-10-21T01:47:56.082Z,6.07
2022-10-21T01:50:46.654Z,8.00
2022-10-21T01:53:36.948Z,5.80
2022-10-21T01:56:26.394Z,6.43
2022-10-21T01:59:16.051Z,7.40
2022-10-21T02:02:06.560Z,6.97
2022-10-21T02:04:57.699Z,6.77
2022-10-21T02:07:46.543Z,7.60
2022-10-21T02:10:38.428Z,6.73
2022-10-21T02:13:31.105Z,8.07
2022-10-21T02:16:23.195Z,9.67
2022-10-21T02:19:14.535Z,11.50
2022-10-21T02:22:05.401Z,11.63
2022-10-21T02:24:56.206Z,12.10
2022-10-21T02:27:45.343Z,11.60
2022-10-21T02:30:37.973Z,12.23
2022-10-21T02:33:34.758Z,12.13
2022-10-21T02:36:27.638Z,11.93
2022-10-21T02:39:20.585Z,11.50
2022-10-21T02:42:11.989Z,11.40
2022-10-21T02:45:01.545Z,11.10
2022-10-21T02:47:51.582Z,11.80
2022-10-21T02:50:40.438Z,11.73
2022-10-21T02:53:29.289Z,12.07
2022-10-21T02:56:19.512Z,12.60
2022-10-21T02:59:09.921Z,10.93
2022-10-21T03:01:58.741Z,12.67
2022-10-21T03:04:47.615Z,11.87
2022-10-21T03:07:36.818Z,13.50
2022-10-21T03:10:26.016Z,12.07
2022-10-21T03:13:16.194Z,11.13
2022-10-21T03:16:05.287Z,13.03
2022-10-21T03:18:54.312Z,11.67
2022-10-21T03:21:43.134Z,11.63
2022-10-21T03:24:31.973Z,12.80
2022-10-21T03:27:20.836Z,11.37
2022-10-21T03:30:11.879Z,13.17
2022-10-21T03:33:00.706Z,13.00
2022-10-21T03:35:49.566Z,12.57
2022-10-21T03:38:38.480Z,13.07
2022-10-21T03:41:27.312Z,11.17
2022-10-21T03:44:16.197Z,12.50
2022-10-21T03:47:06.434Z,12.70
2022-10-21T03:49:55.331Z,12.57
2022-10-21T03:52:44.192Z,11.30
2022-10-21T03:55:33.049Z,12.13
2022-10-21T03:58:22.262Z,11.67
2022-10-21T04:01:12.713Z,11.77
2022-10-21T04:04:03.014Z,11.80
2022-10-21T04:06:51.925Z,11.27
2022-10-21T04:09:40.803Z,11.30
2022-10-21T04:12:29.636Z,11.93
2022-10-21T04:15:18.576Z,10.70
2022-10-21T04:18:08.449Z,10.20
2022-10-21T04:20:58.656Z,10.63
2022-10-21T04:23:47.506Z,11.20
2022-10-21T04:26:36.331Z,10.47
2022-10-21T04:29:25.166Z,10.30
2022-10-21T04:32:13.960Z,11.17
2022-10-21T04:35:02.798Z,9.83
2022-10-21T04:37:52.993Z,11.67
2022-10-21T04:40:41.902Z,10.10
2022-10-21T04:43:31.054Z,8.80
2022-10-21T04:46:20.839Z,10.77
2022-10-21T04:49:09.687Z,9.73
2022-10-21T04:51:58.517Z,10.80
2022-10-21T04:54:48.694Z,10.47
2022-10-21T04:57:37.602Z,9.30
2022-10-21T05:00:26.456Z,13.43
2022-10-21T05:03:15.627Z,18.97
2022-10-21T05:06:04.491Z,14.40
2022-10-21T05:08:53.384Z,11.50
2022-10-21T05:11:43.681Z,13.23
2022-10-21T05:14:32.603Z,11.20
2022-10-21T05:17:21.434Z,11.13
2022-10-21T05:20:11.255Z,10.33
2022-10-21T05:23:00.075Z,10.60
2022-10-21T05:25:50.539Z,10.83
2022-10-21T05:28:40.735Z,10.90
2022-10-21T05:31:29.881Z,9.80
2022-10-21T05:34:18.802Z,9.60
2022-10-21T05:37:07.621Z,10.10
2022-10-21T05:39:56.450Z,10.40
2022-10-21T05:42:45.612Z,11.03
2022-10-21T05:45:35.775Z,9.80
2022-10-21T05:48:24.876Z,9.70
2022-10-21T05:51:13.679Z,9.17
2022-10-21T05:54:03.726Z,9.67
2022-10-21T05:56:52.587Z,9.00
2022-10-21T05:59:41.403Z,8.13
2022-10-21T06:02:31.640Z,7.97
2022-10-21T06:05:20.928Z,9.00
2022-10-21T06:08:09.746Z,8.90
2022-10-21T06:11:02.022Z,8.63
2022-10-21T06:13:50.937Z,8.10
2022-10-21T06:16:39.785Z,8.20
2022-10-21T06:19:30.882Z,8.30
2022-10-21T06:22:20.255Z,7.93
2022-10-21T06:25:09.690Z,7.87
2022-10-21T06:27:58.571Z,7.77
2022-10-21T06:30:48.783Z,7.53
2022-10-21T06:33:37.625Z,7.97
2022-10-21T06:36:27.950Z,7.57
2022-10-21T06:39:16.928Z,7.57
2022-10-21T06:42:05.771Z,8.57
2022-10-21T06:44:56.673Z,8.93
2022-10-21T06:47:48.313Z,8.63
2022-10-21T06:50:38.564Z,7.63
2022-10-21T06:53:28.900Z,8.20
2022-10-21T06:56:19.534Z,7.90
2022-10-21T06:59:08.438Z,7.63
2022-10-21T07:02:01.090Z,8.70
2022-10-21T07:04:50.420Z,7.70
2022-10-21T07:07:39.440Z,7.00
2022-10-21T07:10:29.745Z,7.37
2022-10-21T07:13:22.270Z,7.60
2022-10-21T07:16:17.058Z,9.03
2022-10-21T07:19:06.526Z,8.50
2022-10-21T07:21:55.484Z,8.17
2022-10-21T07:24:44.423Z,10.30
2022-10-21T07:27:34.625Z,8.50
2022-10-21T07:30:23.700Z,7.43
2022-10-21T07:33:12.803Z,8.47
2022-10-21T07:36:05.858Z,6.33
2022-10-21T07:38:55.931Z,8.40
2022-10-21T07:41:45.946Z,4.63
2022-10-21T07:44:36.108Z,6.50
2022-10-21T07:47:25.552Z,4.10
2022-10-21T07:50:14.581Z,6.00
2022-10-21T07:53:12.148Z,4.90
2022-10-21T07:56:06.427Z,5.37
2022-10-21T07:58:55.302Z,4.53
2022-10-21T08:04:41.588Z,4.60
2022-10-21T08:07:32.141Z,4.30
2022-10-21T08:10:21.246Z,4.37
2022-10-21T08:13:10.089Z,4.00
2022-10-21T08:15:59.374Z,4.00
2022-10-21T08:18:49.635Z,3.87
2022-10-21T08:21:39.182Z,4.10
2022-10-21T08:24:28.045Z,3.40
2022-10-21T08:27:16.874Z,3.70
2022-10-21T08:30:06.057Z,3.10
2022-10-21T08:32:54.885Z,2.93
2022-10-21T08:35:45.701Z,3.93
2022-10-21T08:38:34.552Z,3.43
2022-10-21T08:41:38.020Z,4.30
2022-10-21T08:44:31.610Z,4.03
2022-10-21T08:47:22.922Z,3.83
2022-10-21T08:50:14.081Z,4.27
2022-10-21T08:53:07.716Z,3.70
2022-10-21T08:56:00.106Z,4.70
2022-10-21T08:58:49.873Z,3.90
2022-10-21T09:01:42.187Z,3.10
2022-10-21T09:04:37.562Z,4.80
2022-10-21T09:07:29.566Z,4.10
2022-10-21T09:10:26.453Z,3.70
2022-10-21T09:13:18.748Z,4.00
2022-10-21T09:16:11.562Z,6.00
2022-10-21T09:19:05.002Z,4.60
2022-10-21T09:22:10.891Z,3.63
2022-10-21T09:25:10.835Z,3.90
2022-10-21T09:28:01.807Z,6.30
2022-10-21T09:30:51.124Z,4.50
2022-10-21T09:33:39.933Z,3.83
2022-10-21T09:36:31.573Z,5.37
2022-10-21T09:39:21.152Z,4.03
2022-10-21T09:42:29.261Z,3.00
2022-10-21T09:45:24.626Z,3.00
2022-10-21T09:48:32.421Z,3.07
2022-10-21T09:51:25.557Z,3.50
2022-10-21T09:54:16.668Z,3.90
2022-10-21T09:57:07.599Z,3.40
2022-10-21T09:59:57.242Z,4.47
2022-10-21T10:02:47.932Z,3.40
2022-10-21T10:05:38.327Z,3.00
2022-10-21T10:08:30.218Z,3.60
2022-10-21T10:11:21.546Z,3.50
2022-10-21T10:14:20.239Z,3.43
2022-10-21T10:17:23.250Z,2.90
2022-10-21T10:20:17.415Z,2.60
2022-10-21T10:23:10.542Z,2.50
2022-10-21T10:25:59.486Z,2.70
2022-10-21T10:28:52.221Z,2.27
2022-10-21T10:31:41.210Z,3.00
2022-10-21T10:34:32.725Z,3.20
2022-10-21T10:37:24.339Z,4.60
2022-10-21T10:40:19.667Z,2.80
2022-10-21T10:43:16.575Z,2.73
2022-10-21T10:46:06.615Z,2.40
2022-10-21T10:48:56.019Z,3.53
2022-10-21T10:51:47.629Z,3.60
2022-10-21T10:54:38.415Z,3.43
2022-10-21T10:57:39.018Z,2.77
2022-10-21T11:00:36.182Z,2.33
2022-10-21T11:03:28.989Z,3.90
2022-10-21T11:06:19.341Z,2.73
2022-10-21T11:09:09.483Z,2.10
2022-10-21T11:12:00.222Z,3.00
2022-10-21T11:14:51.592Z,2.50
2022-10-21T11:17:41.401Z,2.27
2022-10-21T11:20:35.772Z,2.10
2022-10-21T11:23:32.478Z,1.97
2022-10-21T11:26:23.436Z,2.10
2022-10-21T11:29:20.630Z,2.80
2022-10-21T11:32:16.082Z,2.00
2022-10-21T11:35:17.394Z,1.90
2022-10-21T11:38:23.994Z,2.07
2022-10-21T11:41:19.877Z,1.90
2022-10-21T11:44:16.506Z,2.17
2022-10-21T11:47:11.251Z,1.90
2022-10-21T11:50:05.120Z,3.30
2022-10-21T11:53:02.333Z,2.40
2022-10-21T11:55:56.570Z,2.03
2022-10-21T11:58:51.003Z,1.90
2022-10-21T12:01:46.990Z,1.40
2022-10-21T12:04:43.166Z,2.07
2022-10-21T12:07:40.037Z,1.77
2022-10-21T12:10:31.255Z,1.20
2022-10-21T12:13:22.376Z,1.33
2022-10-21T12:16:12.820Z,1.23
2022-10-21T12:19:05.459Z,1.00
2022-10-21T12:21:55.829Z,0.90
2022-10-21T12:24:47.087Z,0.90
2022-10-21T12:27:38.262Z,1.00
2022-10-21T12:30:32.521Z,1.10
2022-10-21T12:33:26.721Z,0.90
2022-10-21T12:36:21.001Z,1.13
2022-10-21T12:39:17.400Z,0.90
2022-10-21T12:42:06.808Z,0.80
2022-10-21T12:44:55.665Z,1.00
2022-10-21T12:47:46.235Z,0.80
2022-10-21T12:50:35.743Z,1.20
2022-10-21T12:53:35.427Z,0.90
2022-10-21T12:56:31.446Z,1.03
2022-10-21T12:59:31.913Z,1.13
2022-10-21T13:02:22.755Z,1.33
2022-10-21T13:05:11.675Z,1.73
2022-10-21T13:08:16.982Z,1.00
2022-10-21T13:11:22.743Z,1.50
2022-10-21T13:14:36.249Z,1.00
2022-10-21T13:17:29.900Z,1.07
2022-10-21T13:20:39.590Z,1.10
2022-10-21T13:23:38.665Z,1.50
2022-10-21T13:26:30.021Z,1.90
2022-10-21T13:29:24.652Z,2.33
2022-10-21T13:32:31.494Z,2.30
2022-10-21T13:35:29.433Z,2.33
2022-10-21T13:38:21.607Z,2.13
2022-10-21T13:41:21.625Z,2.10
2022-10-21T13:44:25.314Z,1.87
2022-10-21T13:47:28.892Z,2.00
2022-10-21T13:50:20.438Z,1.70
2022-10-21T13:53:25.052Z,1.70
2022-10-21T13:56:20.989Z,1.60
2022-10-21T13:59:26.072Z,1.70
2022-10-21T14:02:24.968Z,2.20
2022-10-21T14:05:28.524Z,1.80
2022-10-21T14:08:21.762Z,2.10
2022-10-21T14:11:15.946Z,2.10
2022-10-21T14:14:08.137Z,2.30
2022-10-21T14:16:58.317Z,2.00
2022-10-21T14:19:49.362Z,3.90
2022-10-21T14:22:38.798Z,2.23
2022-10-21T14:25:28.283Z,2.33
2022-10-21T14:28:18.921Z,1.70
2022-10-21T14:34:02.499Z,1.70
2022-10-21T14:37:11.733Z,1.93
2022-10-21T14:40:10.928Z,2.17
2022-10-21T14:43:00.692Z,1.97
2022-10-21T14:45:52.501Z,2.07
2022-10-21T14:48:45.766Z,2.70
2022-10-21T14:51:37.127Z,2.30
2022-10-21T14:54:28.982Z,1.20
2022-10-21T14:57:24.321Z,1.40
2022-10-21T15:00:24.166Z,1.95
2022-10-21T15:03:15.541Z,1.58
2022-10-21T15:06:11.700Z,2.50
2022-10-21T15:09:01.747Z,2.42
2022-10-21T15:11:50.603Z,1.40
2022-10-21T15:14:39.450Z,1.63
2022-10-21T15:17:28.315Z,1.57
2022-10-21T15:20:18.724Z,1.50
2022-10-21T15:23:07.603Z,1.23
2022-10-21T15:26:00.079Z,1.50
2022-10-21T15:28:49.137Z,2.00
2022-10-21T15:31:38.026Z,2.10
2022-10-21T15:34:27.024Z,2.07
2022-10-21T15:37:17.157Z,1.40
2022-10-21T15:40:06.416Z,1.83
2022-10-21T15:42:56.646Z,1.47
2022-10-21T15:45:45.496Z,1.67
2022-10-21T15:48:34.302Z,1.50
2022-10-21T15:51:23.161Z,2.77
2022-10-21T15:54:13.392Z,2.17
2022-10-21T15:57:02.827Z,2.77
2022-10-21T15:59:51.674Z,2.50
2022-10-21T16:02:41.789Z,2.23
2022-10-21T16:05:30.920Z,2.60
2022-10-21T16:08:19.714Z,2.83
2022-10-21T16:14:05.174Z,2.37
2022-10-21T16:16:54.942Z,2.40
2022-10-21T16:19:43.801Z,1.80
2022-10-21T16:22:32.604Z,2.50
2022-10-21T16:25:21.862Z,2.83
2022-10-21T16:28:13.842Z,3.40
2022-10-21T16:31:02.695Z,2.47
2022-10-21T16:33:51.543Z,2.97
2022-10-21T16:36:40.405Z,3.90
2022-10-21T16:39:29.273Z,2.70
2022-10-21T16:42:18.209Z,2.60
2022-10-21T16:45:09.094Z,2.80
2022-10-21T16:47:59.361Z,3.67
2022-10-21T16:50:48.239Z,4.80
2022-10-21T16:53:37.058Z,7.93
2022-10-21T16:59:14.849Z,4.60
2022-10-21T17:02:05.055Z,3.30
2022-10-21T17:04:53.949Z,3.50
2022-10-21T17:07:42.811Z,3.03
2022-10-21T17:10:31.634Z,2.70
2022-10-21T17:13:20.444Z,2.80
2022-10-21T17:16:09.840Z,3.13
2022-10-21T17:19:00.047Z,2.17
2022-10-21T17:21:48.898Z,2.53
2022-10-21T17:24:37.701Z,2.63
2022-10-21T17:27:26.592Z,2.50
2022-10-21T17:30:15.425Z,3.47
2022-10-21T17:33:04.257Z,3.07
2022-10-21T17:35:54.458Z,2.20
2022-10-21T17:38:43.592Z,3.90
2022-10-21T17:41:32.450Z,4.30
2022-10-21T17:44:21.553Z,3.20
2022-10-21T17:47:10.755Z,4.20
2022-10-21T17:49:59.561Z,4.60
2022-10-21T17:52:49.737Z,5.00
2022-10-21T17:55:38.560Z,5.13
2022-10-21T17:58:27.850Z,6.60
2022-10-21T18:01:16.792Z,7.23
2022-10-21T18:04:05.769Z,7.53
2022-10-21T18:06:54.878Z,6.60
2022-10-21T18:09:45.055Z,8.60
2022-10-21T18:12:34.338Z,9.07
2022-10-21T18:15:25.239Z,7.93
2022-10-21T18:18:14.174Z,7.07
2022-10-21T18:21:03.033Z,8.87
2022-10-21T18:23:53.173Z,8.63
2022-10-21T18:26:43.375Z,8.10
2022-10-21T18:29:32.185Z,8.10
2022-10-21T18:32:21.037Z,8.00
2022-10-21T18:35:10.411Z,7.23
2022-10-21T18:37:59.248Z,7.00
2022-10-21T18:40:56.508Z,6.70
2022-10-21T18:43:54.599Z,6.33
2022-10-21T18:46:46.517Z,6.30
2022-10-21T18:49:35.676Z,6.13
2022-10-21T18:52:24.857Z,7.20
2022-10-21T18:55:13.763Z,7.53
2022-10-21T18:58:02.615Z,7.40
2022-10-21T19:00:52.859Z,7.10
2022-10-21T19:03:41.738Z,6.80
2022-10-21T19:06:32.847Z,6.97
2022-10-21T19:09:23.128Z,7.07
2022-10-21T19:12:15.508Z,7.23
2022-10-21T19:15:06.810Z,7.30
2022-10-21T19:17:56.973Z,8.97
2022-10-21T19:20:45.792Z,9.90
2022-10-21T19:23:35.082Z,11.23
2022-10-21T19:26:24.281Z,11.63
2022-10-21T19:29:14.186Z,11.00
2022-10-21T19:32:03.178Z,10.27
2022-10-21T19:34:53.349Z,9.80
2022-10-21T19:37:42.217Z,9.50
2022-10-21T19:40:31.055Z,10.97
2022-10-21T19:43:19.974Z,10.70
2022-10-21T19:46:09.170Z,13.93
2022-10-21T19:48:58.338Z,11.40
2022-10-21T19:51:48.564Z,10.33
2022-10-21T19:54:37.532Z,8.27
2022-10-21T19:57:26.382Z,7.97
2022-10-21T20:00:15.371Z,9.10
2022-10-21T20:03:04.526Z,6.20
2022-10-21T20:05:53.369Z,6.20
2022-10-21T20:08:44.070Z,7.30
2022-10-21T20:11:32.915Z,7.03
2022-10-21T20:14:21.822Z,8.13
2022-10-21T20:17:12.326Z,7.17
2022-10-21T20:20:02.787Z,8.83
2022-10-21T20:22:51.619Z,8.27
2022-10-21T20:25:48.715Z,7.70
2022-10-21T20:28:37.618Z,8.70
2022-10-21T20:31:26.537Z,8.10
2022-10-21T20:34:15.659Z,8.47
2022-10-21T20:37:04.498Z,9.00
2022-10-21T20:39:53.317Z,8.60
2022-10-21T20:42:47.700Z,8.30
2022-10-21T20:45:38.655Z,8.53
2022-10-21T20:48:27.526Z,7.40
2022-10-21T20:51:17.690Z,5.77
2022-10-21T20:54:08.026Z,6.83
2022-10-21T20:56:56.833Z,7.30
2022-10-21T20:59:46.999Z,6.90
2022-10-21T21:02:35.841Z,7.23
2022-10-21T21:05:24.817Z,7.30
2022-10-21T21:08:13.734Z,7.53
2022-10-21T21:11:02.553Z,8.07
2022-10-21T21:13:51.446Z,8.40
2022-10-21T21:16:41.593Z,8.13
2022-10-21T21:19:30.431Z,8.70
2022-10-21T21:22:20.948Z,7.87
2022-10-21T21:25:10.673Z,9.60
2022-10-21T21:27:59.474Z,8.30
2022-10-21T21:30:52.821Z,7.83
2022-10-21T21:33:45.138Z,7.83
2022-10-21T21:36:34.056Z,8.90
2022-10-21T21:39:22.887Z,7.87
2022-10-21T21:42:11.703Z,8.83
2022-10-21T21:45:00.531Z,8.87
2022-10-21T21:47:49.344Z,8.70
2022-10-21T21:50:39.562Z,8.07
2022-10-21T21:53:28.420Z,8.00
2022-10-21T21:56:17.265Z,7.10
2022-10-21T21:59:06.113Z,6.90
2022-10-21T22:01:54.940Z,7.67
2022-10-21T22:04:44.833Z,7.60
2022-10-21T22:07:34.989Z,7.90
2022-10-21T22:10:23.806Z,7.20
2022-10-21T22:13:12.716Z,8.00
2022-10-21T22:16:01.575Z,7.50
2022-10-21T22:18:50.382Z,7.23
2022-10-21T22:21:39.178Z,8.00
2022-10-21T22:24:29.363Z,6.90
2022-10-21T22:27:18.173Z,6.30
2022-10-21T22:30:07.794Z,6.93
2022-10-21T22:32:56.588Z,6.90
2022-10-21T22:35:45.461Z,7.50
2022-10-21T22:38:34.540Z,6.50
2022-10-21T22:41:24.703Z,7.37
2022-10-21T22:44:13.638Z,6.90
2022-10-21T22:47:02.446Z,6.10
2022-10-21T22:49:51.309Z,6.20
2022-10-21T22:52:41.090Z,6.30
2022-10-21T22:55:31.283Z,5.20
2022-10-21T22:58:22.027Z,6.00
2022-10-21T23:01:11.452Z,5.73
2022-10-21T23:04:02.639Z,6.60
2022-10-21T23:06:51.775Z,6.50
2022-10-21T23:09:40.555Z,6.60
2022-10-21T23:12:29.339Z,7.63
2022-10-21T23:15:19.540Z,5.80
2022-10-21T23:18:08.326Z,6.63
2022-10-21T23:20:57.317Z,6.27
2022-10-21T23:23:46.190Z,6.10
2022-10-21T23:26:35.568Z,6.33
2022-10-21T23:29:24.411Z,5.60
2022-10-21T23:32:14.663Z,6.13
2022-10-21T23:35:03.542Z,5.50
2022-10-21T23:37:52.343Z,6.50
2022-10-21T23:40:41.182Z,5.50
2022-10-21T23:43:30.058Z,5.93
2022-10-21T23:46:18.910Z,5.67
2022-10-21T23:49:09.158Z,6.20
2022-10-21T23:51:58.310Z,6.00
2022-10-21T23:54:47.153Z,5.33
2022-10-21T23:57:36.196Z,5.60
